Olib — 9AA6266 — position and weather

sailwx.info

Track history (hours):
 
Tides and Currents Weather Stations Pressure Air Temp Water Temp Dewpoint Dewpoint Depression Visibility Wind Speed Wind Dir Waves Ship Positions

Olib

Last reported at 2015-Mar-26 04:17 UTC. Time now 2015-Mar-26 23:46 UTC.
Position N 60°01' E 026°37'.

Length 247 m; draft 5.9 m.

Type: Tanker. MMSI: 238252000.

Date/timePositionNaut miles runAvg speedWind from/ knotsBaromVisibWave heightAir tempDewpointWater temp
2015-Mar-26 04:17N 60°01' E 026°37'2 0.1
2015-Mar-24 11:33N 59°59' E 026°37'5914.7
2015-Mar-24 07:30N 59°45' E 024°42'38913.8
2015-Mar-23 03:14N 55°35' E 015°22'1215.0
2015-Mar-23 02:26N 55°30' E 015°03'1315.0
2015-Mar-23 01:33N 55°24' E 014°43'1515.0
2015-Mar-23 00:33N 55°13' E 014°25'1515.2
2015-Mar-22 23:33N 55°02' E 014°07'1515.0
2015-Mar-22 22:32N 54°56' E 013°42'2114.6
2015-Mar-22 21:05N 54°49' E 013°07'814.6
2015-Mar-22 20:30N 54°46' E 012°54'1414.4
2015-Mar-22 19:33N 54°40' E 012°33'1312.6
2015-Mar-22 18:30N 54°32' E 012°15'1111.6
2015-Mar-22 17:33N 54°25' E 012°01'1414.0
2015-Mar-22 16:33N 54°28' E 011°37'1414.1
2015-Mar-22 15:33N 54°34' E 011°15'12710.5
2015-Mar-22 03:33N 56°40' E 011°41'1110.7
2015-Mar-22 02:33N 56°49' E 011°50'1312.5
2015-Mar-22 01:33N 57°01' E 011°42'1212.4
2015-Mar-22 00:33N 57°12' E 011°34'1212.4
2015-Mar-21 23:33N 57°24' E 011°26'1212.2
2015-Mar-21 22:33N 57°33' E 011°11'1212.0
2015-Mar-21 21:32N 57°42' E 010°55'1111.3
2015-Mar-21 20:33N 57°49' E 010°38'28311.1
2015-Mar-20 19:06N 54°15' E 005°05'13612.9
2015-Mar-20 08:33N 52°14' E 003°21'2512.5
2015-Mar-20 06:33N 52°02' E 003°56'10 9.6
2015-Mar-20 05:32N 51°56' E 004°10'0 0.0
2015-Mar-20 04:29N 51°56' E 004°10'0 0.0
2015-Mar-20 03:32N 51°56' E 004°10'0 0.0
2015-Mar-20 02:32N 51°56' E 004°10'0 0.0
2015-Mar-20 01:29N 51°56' E 004°10'0 0.0
2015-Mar-20 00:32N 51°56' E 004°10'0 0.0
2015-Mar-19 23:32N 51°56' E 004°10'0 0.0
2015-Mar-19 22:29N 51°56' E 004°10'0 0.0
2015-Mar-19 21:32N 51°56' E 004°10'0 0.0
2015-Mar-19 20:32N 51°56' E 004°10'0 0.0
2015-Mar-19 19:32N 51°56' E 004°10'0 0.0
2015-Mar-19 18:32N 51°56' E 004°10'0 0.0
2015-Mar-19 17:29N 51°56' E 004°10'0 0.0
2015-Mar-19 16:32N 51°56' E 004°10'0 0.0
2015-Mar-19 15:32N 51°56' E 004°10'0 0.0
2015-Mar-19 14:32N 51°56' E 004°10'0 0.0
2015-Mar-19 13:29N 51°56' E 004°10'0 0.0
2015-Mar-19 12:32N 51°56' E 004°10'0 0.0
2015-Mar-19 11:32N 51°56' E 004°10'0 0.0
2015-Mar-19 10:29N 51°56' E 004°10'0 0.0
2015-Mar-19 09:32N 51°56' E 004°10'0 0.0
2015-Mar-19 08:32N 51°56' E 004°10'0 0.0
2015-Mar-19 07:29N 51°56' E 004°10'0 0.0
2015-Mar-19 06:29N 51°56' E 004°10'0 0.0
2015-Mar-19 05:32N 51°56' E 004°10'0 0.0
2015-Mar-19 04:32N 51°56' E 004°10'0 0.0
2015-Mar-19 03:32N 51°56' E 004°10'0 0.0
2015-Mar-19 02:29N 51°56' E 004°10'0 0.0
2015-Mar-19 01:32N 51°56' E 004°10'0 0.0
2015-Mar-19 00:32N 51°56' E 004°10'0 0.0
2015-Mar-18 23:32N 51°56' E 004°10'0 0.0
2015-Mar-18 22:28N 51°56' E 004°10'0 0.0
2015-Mar-18 21:32N 51°56' E 004°10'0 0.0
2015-Mar-18 20:31N 51°56' E 004°10'0 0.0
2015-Mar-18 19:28N 51°56' E 004°10'0 0.0
2015-Mar-18 18:31N 51°56' E 004°10'0 0.0
2015-Mar-18 17:32N 51°56' E 004°10'0 0.0
2015-Mar-18 16:34N 51°56' E 004°10'3 2.7
2015-Mar-18 15:33N 51°58' E 004°06'19 9.5
2015-Mar-18 13:33N 51°57' E 003°36'5 2.2
2015-Mar-18 11:18N 51°54' E 003°30'0 0.2
2015-Mar-18 10:21N 51°54' E 003°30'0 0.1
2015-Mar-18 09:30N 51°54' E 003°30'0 0.0
2015-Mar-18 07:33N 51°54' E 003°30'0 0.0
2015-Mar-18 05:21N 51°54' E 003°30'0 0.0
2015-Mar-18 04:27N 51°54' E 003°30'0 0.1
2015-Mar-18 03:30N 51°54' E 003°30'0 0.2
2015-Mar-18 02:30N 51°54' E 003°30'0 0.0
2015-Mar-18 01:09N 51°54' E 003°30'0 0.0
2015-Mar-18 00:09N 51°54' E 003°30'0 0.0
2015-Mar-17 23:24N 51°54' E 003°30'0 0.1
2015-Mar-17 22:27N 51°54' E 003°30'0 0.2
2015-Mar-17 21:33N 51°54' E 003°30'0 0.1
2015-Mar-17 20:33N 51°54' E 003°30'0 0.0
2015-Mar-17 19:24N 51°54' E 003°30'0 0.0
2015-Mar-17 18:33N 51°54' E 003°30'0 0.0
2015-Mar-17 17:33N 51°54' E 003°30'0 0.0
2015-Mar-17 16:33N 51°54' E 003°30'0 0.1
2015-Mar-17 15:27N 51°54' E 003°30'0 0.2
2015-Mar-17 14:18N 51°54' E 003°30'0 0.0
2015-Mar-17 13:27N 51°54' E 003°30'0 0.1
2015-Mar-17 12:33N 51°54' E 003°30'0 0.0
2015-Mar-17 11:33N 51°54' E 003°30'0 0.0
2015-Mar-17 10:33N 51°54' E 003°30'0 0.0
2015-Mar-17 09:33N 51°54' E 003°30'0 0.2
2015-Mar-17 08:06N 51°54' E 003°30'0 0.0
2015-Mar-17 07:24N 51°54' E 003°30'0 0.0
2015-Mar-17 06:33N 51°54' E 003°30'0 0.0
2015-Mar-17 05:30N 51°54' E 003°30'0 0.0
2015-Mar-17 04:06N 51°54' E 003°30'0 0.1
2015-Mar-17 03:33N 51°54' E 003°30'0 0.2
2015-Mar-17 02:33N 51°54' E 003°30'0 0.0
2015-Mar-17 01:24N 51°54' E 003°30'0 0.0
2015-Mar-17 00:21N 51°54' E 003°30'0 0.0
2015-Mar-16 23:24N 51°54' E 003°30'0 0.0
2015-Mar-16 22:12N 51°54' E 003°30'0 0.1
2015-Mar-16 21:24N 51°54' E 003°30'0 0.2
2015-Mar-16 20:21N 51°54' E 003°30'0 0.0
2015-Mar-16 19:24N 51°54' E 003°30'0 0.0
2015-Mar-16 18:03N 51°54' E 003°30'0 0.0
2015-Mar-16 17:33N 51°54' E 003°30'0 0.0
2015-Mar-16 16:33N 51°54' E 003°30'0 0.0
2015-Mar-16 15:30N 51°54' E 003°30'0 0.0
2015-Mar-16 14:30N 51°54' E 003°30'0 0.2
2015-Mar-16 13:33N 51°54' E 003°30'0 0.1
2015-Mar-16 12:27N 51°54' E 003°30'0 0.0
2015-Mar-16 11:33N 51°54' E 003°30'0 0.0
2015-Mar-16 10:18N 51°54' E 003°30'0 0.0
2015-Mar-16 09:09N 51°54' E 003°30'0 0.2
2015-Mar-16 08:15N 51°54' E 003°30'0 0.2
2015-Mar-16 07:33N 51°54' E 003°30'0 0.0
2015-Mar-16 06:12N 51°54' E 003°30'0 0.0
2015-Mar-16 05:33N 51°54' E 003°30'0 0.0
2015-Mar-16 04:27N 51°54' E 003°30'  
Track history (hours):
 
Tides and Currents Weather Stations Pressure Air Temp Water Temp Dewpoint Dewpoint Depression Visibility Wind Speed Wind Dir Waves Ship Positions

Olib

Last reported at 2015-Mar-26 04:17 UTC. Time now 2015-Mar-26 23:46 UTC.
Position N 60°01' E 026°37'.

Length 247 m; draft 5.9 m.

Type: Tanker. MMSI: 238252000.

Date/timePositionNaut miles runAvg speedWind from/ knotsBaromVisibWave heightAir tempDewpointWater temp
2015-Mar-26 04:17N 60°01' E 026°37'2 0.1
2015-Mar-24 11:33N 59°59' E 026°37'5914.7
2015-Mar-24 07:30N 59°45' E 024°42'38913.8
2015-Mar-23 03:14N 55°35' E 015°22'1215.0
2015-Mar-23 02:26N 55°30' E 015°03'1315.0
2015-Mar-23 01:33N 55°24' E 014°43'1515.0
2015-Mar-23 00:33N 55°13' E 014°25'1515.2
2015-Mar-22 23:33N 55°02' E 014°07'1515.0
2015-Mar-22 22:32N 54°56' E 013°42'2114.6
2015-Mar-22 21:05N 54°49' E 013°07'814.6
2015-Mar-22 20:30N 54°46' E 012°54'1414.4
2015-Mar-22 19:33N 54°40' E 012°33'1312.6
2015-Mar-22 18:30N 54°32' E 012°15'1111.6
2015-Mar-22 17:33N 54°25' E 012°01'1414.0
2015-Mar-22 16:33N 54°28' E 011°37'1414.1
2015-Mar-22 15:33N 54°34' E 011°15'12710.5
2015-Mar-22 03:33N 56°40' E 011°41'1110.7
2015-Mar-22 02:33N 56°49' E 011°50'1312.5
2015-Mar-22 01:33N 57°01' E 011°42'1212.4
2015-Mar-22 00:33N 57°12' E 011°34'1212.4
2015-Mar-21 23:33N 57°24' E 011°26'1212.2
2015-Mar-21 22:33N 57°33' E 011°11'1212.0
2015-Mar-21 21:32N 57°42' E 010°55'1111.3
2015-Mar-21 20:33N 57°49' E 010°38'28311.1
2015-Mar-20 19:06N 54°15' E 005°05'13612.9
2015-Mar-20 08:33N 52°14' E 003°21'2512.5
2015-Mar-20 06:33N 52°02' E 003°56'10 9.6
2015-Mar-20 05:32N 51°56' E 004°10'0 0.0
2015-Mar-20 04:29N 51°56' E 004°10'0 0.0
2015-Mar-20 03:32N 51°56' E 004°10'0 0.0
2015-Mar-20 02:32N 51°56' E 004°10'0 0.0
2015-Mar-20 01:29N 51°56' E 004°10'0 0.0
2015-Mar-20 00:32N 51°56' E 004°10'0 0.0
2015-Mar-19 23:32N 51°56' E 004°10'0 0.0
2015-Mar-19 22:29N 51°56' E 004°10'0 0.0
2015-Mar-19 21:32N 51°56' E 004°10'0 0.0
2015-Mar-19 20:32N 51°56' E 004°10'0 0.0
2015-Mar-19 19:32N 51°56' E 004°10'0 0.0
2015-Mar-19 18:32N 51°56' E 004°10'0 0.0
2015-Mar-19 17:29N 51°56' E 004°10'0 0.0
2015-Mar-19 16:32N 51°56' E 004°10'0 0.0
2015-Mar-19 15:32N 51°56' E 004°10'0 0.0
2015-Mar-19 14:32N 51°56' E 004°10'0 0.0
2015-Mar-19 13:29N 51°56' E 004°10'0 0.0
2015-Mar-19 12:32N 51°56' E 004°10'0 0.0
2015-Mar-19 11:32N 51°56' E 004°10'0 0.0
2015-Mar-19 10:29N 51°56' E 004°10'0 0.0
2015-Mar-19 09:32N 51°56' E 004°10'0 0.0
2015-Mar-19 08:32N 51°56' E 004°10'0 0.0
2015-Mar-19 07:29N 51°56' E 004°10'0 0.0
2015-Mar-19 06:29N 51°56' E 004°10'0 0.0
2015-Mar-19 05:32N 51°56' E 004°10'0 0.0
2015-Mar-19 04:32N 51°56' E 004°10'0 0.0
2015-Mar-19 03:32N 51°56' E 004°10'0 0.0
2015-Mar-19 02:29N 51°56' E 004°10'0 0.0
2015-Mar-19 01:32N 51°56' E 004°10'0 0.0
2015-Mar-19 00:32N 51°56' E 004°10'0 0.0
2015-Mar-18 23:32N 51°56' E 004°10'0 0.0
2015-Mar-18 22:28N 51°56' E 004°10'0 0.0
2015-Mar-18 21:32N 51°56' E 004°10'0 0.0
2015-Mar-18 20:31N 51°56' E 004°10'0 0.0
2015-Mar-18 19:28N 51°56' E 004°10'0 0.0
2015-Mar-18 18:31N 51°56' E 004°10'0 0.0
2015-Mar-18 17:32N 51°56' E 004°10'0 0.0
2015-Mar-18 16:34N 51°56' E 004°10'3 2.7
2015-Mar-18 15:33N 51°58' E 004°06'19 9.5
2015-Mar-18 13:33N 51°57' E 003°36'5 2.2
2015-Mar-18 11:18N 51°54' E 003°30'0 0.2
2015-Mar-18 10:21N 51°54' E 003°30'0 0.1
2015-Mar-18 09:30N 51°54' E 003°30'0 0.0
2015-Mar-18 07:33N 51°54' E 003°30'0 0.0
2015-Mar-18 05:21N 51°54' E 003°30'0 0.0
2015-Mar-18 04:27N 51°54' E 003°30'0 0.1
2015-Mar-18 03:30N 51°54' E 003°30'0 0.2
2015-Mar-18 02:30N 51°54' E 003°30'0 0.0
2015-Mar-18 01:09N 51°54' E 003°30'0 0.0
2015-Mar-18 00:09N 51°54' E 003°30'0 0.0
2015-Mar-17 23:24N 51°54' E 003°30'0 0.1
2015-Mar-17 22:27N 51°54' E 003°30'0 0.2
2015-Mar-17 21:33N 51°54' E 003°30'0 0.1
2015-Mar-17 20:33N 51°54' E 003°30'0 0.0
2015-Mar-17 19:24N 51°54' E 003°30'0 0.0
2015-Mar-17 18:33N 51°54' E 003°30'0 0.0
2015-Mar-17 17:33N 51°54' E 003°30'0 0.0
2015-Mar-17 16:33N 51°54' E 003°30'0 0.1
2015-Mar-17 15:27N 51°54' E 003°30'0 0.2
2015-Mar-17 14:18N 51°54' E 003°30'0 0.0
2015-Mar-17 13:27N 51°54' E 003°30'0 0.1
2015-Mar-17 12:33N 51°54' E 003°30'0 0.0
2015-Mar-17 11:33N 51°54' E 003°30'0 0.0
2015-Mar-17 10:33N 51°54' E 003°30'0 0.0
2015-Mar-17 09:33N 51°54' E 003°30'0 0.2
2015-Mar-17 08:06N 51°54' E 003°30'0 0.0
2015-Mar-17 07:24N 51°54' E 003°30'0 0.0
2015-Mar-17 06:33N 51°54' E 003°30'0 0.0
2015-Mar-17 05:30N 51°54' E 003°30'0 0.0
2015-Mar-17 04:06N 51°54' E 003°30'0 0.1
2015-Mar-17 03:33N 51°54' E 003°30'0 0.2
2015-Mar-17 02:33N 51°54' E 003°30'0 0.0
2015-Mar-17 01:24N 51°54' E 003°30'0 0.0
2015-Mar-17 00:21N 51°54' E 003°30'0 0.0
2015-Mar-16 23:24N 51°54' E 003°30'0 0.0
2015-Mar-16 22:12N 51°54' E 003°30'0 0.1
2015-Mar-16 21:24N 51°54' E 003°30'0 0.2
2015-Mar-16 20:21N 51°54' E 003°30'0 0.0
2015-Mar-16 19:24N 51°54' E 003°30'0 0.0
2015-Mar-16 18:03N 51°54' E 003°30'0 0.0
2015-Mar-16 17:33N 51°54' E 003°30'0 0.0
2015-Mar-16 16:33N 51°54' E 003°30'0 0.0
2015-Mar-16 15:30N 51°54' E 003°30'0 0.0
2015-Mar-16 14:30N 51°54' E 003°30'0 0.2
2015-Mar-16 13:33N 51°54' E 003°30'0 0.1
2015-Mar-16 12:27N 51°54' E 003°30'0 0.0
2015-Mar-16 11:33N 51°54' E 003°30'0 0.0
2015-Mar-16 10:18N 51°54' E 003°30'0 0.0
2015-Mar-16 09:09N 51°54' E 003°30'0 0.2
2015-Mar-16 08:15N 51°54' E 003°30'0 0.2
2015-Mar-16 07:33N 51°54' E 003°30'0 0.0
2015-Mar-16 06:12N 51°54' E 003°30'0 0.0
2015-Mar-16 05:33N 51°54' E 003°30'0 0.0
2015-Mar-16 04:27N 51°54' E 003°30'  

Dump ship's entire track history